createdAt,value
2022-09-06T00:01:12.042Z,81.87
2022-09-06T00:06:43.810Z,82.25
2022-09-06T00:12:19.905Z,81.63
2022-09-06T00:17:51.630Z,82.62
2022-09-06T00:23:23.329Z,82.3
2022-09-06T00:28:55.089Z,82.23
2022-09-06T00:34:26.806Z,82.59
2022-09-06T00:39:58.580Z,82.57
2022-09-06T00:45:30.204Z,83.35
2022-09-06T00:51:01.962Z,83.03
2022-09-06T00:56:33.672Z,82.68
2022-09-06T01:02:05.638Z,83.44
2022-09-06T01:07:37.245Z,84.04
2022-09-06T01:13:13.251Z,84.63
2022-09-06T01:18:44.925Z,84.71
2022-09-06T01:24:16.643Z,84.36
2022-09-06T01:29:48.372Z,84.37
2022-09-06T01:35:20.217Z,84.3
2022-09-06T01:40:51.845Z,83.14
2022-09-06T01:46:23.647Z,83.66
2022-09-06T01:51:55.335Z,82.56
2022-09-06T01:57:27.009Z,82.96
2022-09-06T02:02:58.778Z,83.53
2022-09-06T02:08:30.501Z,83.65
2022-09-06T02:14:06.537Z,86.32
2022-09-06T02:19:38.365Z,86.25
2022-09-06T02:25:10.228Z,85.89
2022-09-06T02:30:41.886Z,84.83
2022-09-06T02:36:13.489Z,88.0
2022-09-06T02:41:45.236Z,89.82
2022-09-06T02:47:16.976Z,90.98
2022-09-06T02:52:48.612Z,93.99
2022-09-06T02:58:20.458Z,95.14
2022-09-06T03:03:52.293Z,95.83
2022-09-06T03:09:23.826Z,97.32
2022-09-06T03:14:59.898Z,96.68
2022-09-06T03:20:37.413Z,100.0
2022-09-06T03:26:03.385Z,97.94
2022-09-06T03:31:35.091Z,97.44
2022-09-06T03:37:06.984Z,97.52
2022-09-06T03:42:38.531Z,96.62
2022-09-06T03:48:10.293Z,97.39
2022-09-06T03:53:42.036Z,96.95
2022-09-06T03:59:13.726Z,97.12
2022-09-06T04:04:45.448Z,97.14
2022-09-06T04:10:17.223Z,97.14
2022-09-06T04:15:53.357Z,96.59
2022-09-06T04:21:25.437Z,98.29
2022-09-06T04:26:56.770Z,98.84
2022-09-06T04:32:28.545Z,98.4
2022-09-06T04:38:00.195Z,98.79
2022-09-06T04:43:31.966Z,99.64
2022-09-06T04:49:03.676Z,99.34
2022-09-06T04:54:35.384Z,98.93
2022-09-06T05:00:07.231Z,100.0
2022-09-06T05:16:46.756Z,100.0
2022-09-06T05:22:18.277Z,100.0
2022-09-06T05:27:50.213Z,100.0
2022-09-06T05:33:21.821Z,100.0
2022-09-06T05:38:53.569Z,100.0
2022-09-06T05:44:25.349Z,100.0
2022-09-06T05:49:57.005Z,100.0
2022-09-06T05:55:28.697Z,100.0
2022-09-06T06:01:00.602Z,100.0
2022-09-06T06:06:32.167Z,100.0
2022-09-06T06:12:03.925Z,100.0
2022-09-06T06:17:40.067Z,100.0
2022-09-06T06:23:11.783Z,100.0
2022-09-06T06:28:43.432Z,100.0
2022-09-06T06:34:15.293Z,100.0
2022-09-06T06:39:47.051Z,100.0
2022-09-06T06:45:18.587Z,98.86
2022-09-06T06:50:50.365Z,98.43
2022-09-06T06:56:22.179Z,98.33
2022-09-06T07:01:54.181Z,96.93
2022-09-06T07:07:36.767Z,95.3
2022-09-06T07:12:57.298Z,96.71
2022-09-06T07:18:35.413Z,96.59
2022-09-06T07:24:09.181Z,94.56
2022-09-06T07:24:56.983Z,94.48
2022-09-06T07:30:28.689Z,94.57
2022-09-06T07:36:00.523Z,93.91
2022-09-06T07:41:32.365Z,92.12
2022-09-06T07:47:57.992Z,89.55
2022-09-06T07:58:07.369Z,85.5
2022-09-06T08:03:39.169Z,85.85
2022-09-06T08:09:10.853Z,84.17
2022-09-06T08:14:42.510Z,82.54
2022-09-06T08:20:14.216Z,81.73
2022-09-06T08:25:50.425Z,81.46
2022-09-06T08:31:22.144Z,81.6
2022-09-06T08:36:53.973Z,79.41
2022-09-06T08:42:25.535Z,78.86
2022-09-06T08:47:57.248Z,78.27
2022-09-06T08:53:29.084Z,77.7
2022-09-06T08:59:00.729Z,76.75
2022-09-06T09:04:32.416Z,76.94
2022-09-06T09:10:04.213Z,75.88
2022-09-06T09:15:40.664Z,76.11
2022-09-06T09:21:07.631Z,75.79
2022-09-06T09:26:45.911Z,76.0
2022-09-06T09:32:17.449Z,75.34
2022-09-06T09:37:55.878Z,73.74
2022-09-06T09:43:20.856Z,72.2
2022-09-06T09:48:52.593Z,73.22
2022-09-06T09:54:24.361Z,72.9
2022-09-06T09:59:56.010Z,71.44
2022-09-06T10:05:27.741Z,71.93
2022-09-06T10:10:59.464Z,72.31
2022-09-06T10:16:31.230Z,71.48
2022-09-06T10:22:02.895Z,69.66
2022-09-06T10:33:10.797Z,70.16
2022-09-06T10:38:42.516Z,67.87
2022-09-06T10:44:14.264Z,69.2
2022-09-06T10:49:45.908Z,69.48
2022-09-06T10:55:17.625Z,69.72
2022-09-06T11:00:49.927Z,69.94
2022-09-06T11:06:24.372Z,71.16
2022-09-06T11:11:52.880Z,73.37
2022-09-06T11:17:24.599Z,73.42
2022-09-06T11:22:56.249Z,72.85
2022-09-06T11:28:32.377Z,71.81
2022-09-06T11:34:04.112Z,70.72
2022-09-06T11:40:30.742Z,71.58
2022-09-06T11:45:07.549Z,70.21
2022-09-06T11:50:39.269Z,70.43
2022-09-06T11:56:11.104Z,71.41
2022-09-06T12:01:42.741Z,71.07
2022-09-06T12:07:14.478Z,69.65
2022-09-06T12:12:46.139Z,70.5
2022-09-06T12:18:17.900Z,70.86
2022-09-06T12:23:49.669Z,69.92
2022-09-06T12:29:27.707Z,70.37
2022-09-06T12:35:57.314Z,71.88
2022-09-06T12:40:31.196Z,72.16
2022-09-06T12:46:02.987Z,70.73
2022-09-06T12:51:34.658Z,70.69
2022-09-06T12:57:06.355Z,71.47
2022-09-06T13:02:38.274Z,71.24
2022-09-06T13:08:09.785Z,72.35
2022-09-06T13:13:41.496Z,72.16
2022-09-06T13:19:13.202Z,71.78
2022-09-06T13:24:47.518Z,70.92
2022-09-06T13:30:21.073Z,70.62
2022-09-06T13:35:52.764Z,74.49
2022-09-06T13:41:24.542Z,80.48
2022-09-06T13:46:56.205Z,80.11
2022-09-06T13:52:27.935Z,77.37
2022-09-06T13:57:59.656Z,75.8
2022-09-06T14:03:31.445Z,75.86
2022-09-06T14:09:08.384Z,76.54
2022-09-06T14:14:34.872Z,76.61
2022-09-06T14:20:06.575Z,76.3
2022-09-06T14:25:38.355Z,77.4
2022-09-06T14:31:14.553Z,77.78
2022-09-06T14:36:46.043Z,79.44
2022-09-06T14:42:17.902Z,82.28
2022-09-06T14:47:49.589Z,83.88
2022-09-06T14:53:40.857Z,85.81
2022-09-06T14:58:53.038Z,85.83
2022-09-06T15:04:24.786Z,80.27
2022-09-06T15:09:56.513Z,83.08
2022-09-06T15:15:28.232Z,84.31
2022-09-06T15:21:00.105Z,83.83
2022-09-06T15:26:31.640Z,85.19
2022-09-06T15:32:09.806Z,88.47
2022-09-06T15:37:41.521Z,89.71
2022-09-06T15:43:13.556Z,86.79
2022-09-06T15:48:44.964Z,88.35
2022-09-06T15:54:16.723Z,89.43
2022-09-06T15:59:48.413Z,87.98
2022-09-06T16:06:28.828Z,87.69
2022-09-06T16:10:51.995Z,87.66
2022-09-06T16:16:23.715Z,84.51
2022-09-06T16:21:55.217Z,82.99
2022-09-06T16:27:26.940Z,81.08
2022-09-06T16:33:03.103Z,79.11
2022-09-06T16:38:34.883Z,83.33
2022-09-06T16:44:06.566Z,81.77
2022-09-06T16:49:38.218Z,82.33
2022-09-06T16:55:10.007Z,82.53
2022-09-06T17:00:41.707Z,81.12
2022-09-06T17:06:13.505Z,79.83
2022-09-06T17:11:45.177Z,79.31
2022-09-06T17:17:16.905Z,81.23
2022-09-06T17:22:48.601Z,81.48
2022-09-06T17:28:20.306Z,84.33
2022-09-06T17:33:56.433Z,84.16
2022-09-06T17:39:28.258Z,83.34
2022-09-06T17:44:59.906Z,83.31
2022-09-06T17:50:31.649Z,82.55
2022-09-06T17:56:03.305Z,83.11
2022-09-06T18:01:35.239Z,82.72
2022-09-06T18:07:06.758Z,83.48
2022-09-06T18:12:38.557Z,82.76
2022-09-06T18:18:10.297Z,82.5
2022-09-06T18:23:41.999Z,81.11
2022-09-06T18:29:13.664Z,81.22
2022-09-06T18:34:51.741Z,82.26
2022-09-06T18:40:23.557Z,82.82
2022-09-06T18:45:55.321Z,83.32
2022-09-06T18:51:26.982Z,84.14
2022-09-06T18:56:58.650Z,85.03
2022-09-06T19:02:30.568Z,84.17
2022-09-06T19:08:02.182Z,85.48
2022-09-06T19:13:33.839Z,85.31
2022-09-06T19:19:05.630Z,86.4
2022-09-06T19:24:37.546Z,86.63
2022-09-06T19:30:09.125Z,86.8
2022-09-06T19:36:12.153Z,86.91
2022-09-06T19:41:16.831Z,86.51
2022-09-06T19:46:48.569Z,87.67
2022-09-06T19:52:20.229Z,87.19
2022-09-06T19:57:52.041Z,87.25
2022-09-06T20:03:23.709Z,87.42
2022-09-06T20:08:55.597Z,87.85
2022-09-06T20:14:27.077Z,87.3
2022-09-06T20:19:58.830Z,88.01
2022-09-06T20:25:30.536Z,87.09
2022-09-06T20:31:02.341Z,86.24
2022-09-06T20:36:38.431Z,85.86
2022-09-06T20:42:10.137Z,85.34
2022-09-06T20:47:41.807Z,85.36
2022-09-06T20:53:13.570Z,86.04
2022-09-06T20:58:45.298Z,86.86
2022-09-06T21:04:17.006Z,86.91
2022-09-06T21:09:48.724Z,86.5
2022-09-06T21:15:20.494Z,86.37
2022-09-06T21:20:52.211Z,86.09
2022-09-06T21:26:23.924Z,86.4
2022-09-06T21:31:55.749Z,86.54
2022-09-06T21:37:33.719Z,86.82
2022-09-06T21:43:05.463Z,87.28
2022-09-06T21:48:37.177Z,88.04
2022-09-06T21:54:08.950Z,88.4
2022-09-06T21:59:40.539Z,88.64
2022-09-06T22:05:12.414Z,88.82
2022-09-06T22:10:44.068Z,88.37
2022-09-06T22:16:15.945Z,89.34
2022-09-06T22:21:47.545Z,89.41
2022-09-06T22:27:19.245Z,88.57
2022-09-06T22:32:50.997Z,88.55
2022-09-06T22:38:27.042Z,87.78
2022-09-06T22:43:58.729Z,87.84
2022-09-06T22:49:30.505Z,87.67
2022-09-06T22:55:02.365Z,88.47
2022-09-06T23:00:33.963Z,88.85
2022-09-06T23:06:05.650Z,88.86
2022-09-06T23:11:37.414Z,88.23
2022-09-06T23:17:09.250Z,87.7
2022-09-06T23:22:40.822Z,86.89
2022-09-06T23:28:12.785Z,86.41
2022-09-06T23:33:44.246Z,85.75
2022-09-06T23:39:22.769Z,86.15
2022-09-06T23:44:54.181Z,84.74
2022-09-06T23:50:26.052Z,83.73
2022-09-06T23:55:57.621Z,83.67
